createdAt,value
2023-06-04T00:01:30.224Z,1.80
2023-06-04T00:03:58.076Z,1.60
2023-06-04T00:06:25.815Z,1.60
2023-06-04T00:08:53.754Z,1.70
2023-06-04T00:11:21.939Z,1.70
2023-06-04T00:13:49.753Z,1.85
2023-06-04T00:16:17.407Z,1.70
2023-06-04T00:18:47.077Z,1.88
2023-06-04T00:21:14.643Z,1.95
2023-06-04T00:23:44.275Z,1.60
2023-06-04T00:26:11.896Z,1.52
2023-06-04T00:28:43.680Z,1.77
2023-06-04T00:31:11.450Z,1.65
2023-06-04T00:33:39.120Z,1.80
2023-06-04T00:36:08.790Z,1.90
2023-06-04T00:38:37.725Z,1.70
2023-06-04T00:41:05.817Z,1.70
2023-06-04T00:43:34.439Z,1.83
2023-06-04T00:46:04.082Z,1.90
2023-06-04T00:48:31.942Z,1.80
2023-06-04T00:50:59.849Z,1.80
2023-06-04T00:53:28.984Z,1.90
2023-06-04T00:55:57.038Z,1.77
2023-06-04T00:58:25.645Z,2.13
2023-06-04T01:00:57.580Z,1.90
2023-06-04T01:06:03.980Z,2.03
2023-06-04T01:08:33.271Z,1.80
2023-06-04T01:11:00.853Z,2.05
2023-06-04T01:13:28.974Z,1.70
2023-06-04T01:15:56.598Z,1.65
2023-06-04T01:18:30.274Z,1.90
2023-06-04T01:21:01.341Z,1.90
2023-06-04T01:23:47.869Z,2.03
2023-06-04T01:26:16.065Z,2.10
2023-06-04T01:28:46.403Z,2.05
2023-06-04T01:31:15.726Z,1.80
2023-06-04T01:33:43.436Z,2.17
2023-06-04T01:36:13.305Z,1.90
2023-06-04T01:38:42.246Z,1.90
2023-06-04T01:41:10.921Z,2.00
2023-06-04T01:43:39.410Z,2.20
2023-06-04T01:46:07.941Z,2.17
2023-06-04T01:48:35.981Z,2.35
2023-06-04T01:51:04.187Z,2.10
2023-06-04T01:53:32.254Z,2.13
2023-06-04T01:56:04.042Z,1.90
2023-06-04T01:58:33.026Z,2.05
2023-06-04T02:01:04.421Z,2.22
2023-06-04T02:03:37.930Z,1.95
2023-06-04T02:06:08.880Z,2.17
2023-06-04T02:08:36.941Z,2.15
2023-06-04T02:11:06.191Z,2.13
2023-06-04T02:13:33.968Z,2.20
2023-06-04T02:16:01.793Z,2.00
2023-06-04T02:18:30.263Z,2.50
2023-06-04T02:21:01.663Z,2.30
2023-06-04T02:23:29.435Z,2.67
2023-06-04T02:25:57.149Z,2.60
2023-06-04T02:28:26.221Z,2.42
2023-06-04T02:30:54.273Z,2.05
2023-06-04T02:33:22.230Z,2.20
2023-06-04T02:35:51.004Z,2.00
2023-06-04T02:38:19.300Z,2.38
2023-06-04T02:40:47.775Z,2.33
2023-06-04T02:43:16.437Z,2.00
2023-06-04T02:45:46.292Z,2.10
2023-06-04T02:48:14.010Z,2.65
2023-06-04T02:50:43.422Z,2.22
2023-06-04T02:53:11.053Z,1.77
2023-06-04T02:55:38.740Z,2.10
2023-06-04T02:58:06.769Z,2.10
2023-06-04T03:00:34.496Z,1.90
2023-06-04T03:03:03.745Z,2.03
2023-06-04T03:05:33.873Z,2.00
2023-06-04T03:08:04.617Z,1.83
2023-06-04T03:10:32.329Z,1.77
2023-06-04T03:13:00.790Z,2.25
2023-06-04T03:15:28.409Z,1.80
2023-06-04T03:17:58.066Z,1.92
2023-06-04T03:20:27.249Z,2.03
2023-06-04T03:22:55.260Z,1.85
2023-06-04T03:25:23.900Z,1.70
2023-06-04T03:27:51.881Z,1.80
2023-06-04T03:30:19.961Z,1.90
2023-06-04T03:32:57.192Z,1.80
2023-06-04T03:35:27.275Z,1.98
2023-06-04T03:37:56.296Z,1.90
2023-06-04T03:40:24.142Z,2.30
2023-06-04T03:42:52.298Z,2.38
2023-06-04T03:45:22.096Z,1.92
2023-06-04T03:47:51.487Z,2.28
2023-06-04T03:50:20.981Z,2.00
2023-06-04T03:52:50.291Z,1.92
2023-06-04T03:55:21.392Z,2.00
2023-06-04T03:57:52.277Z,1.90
2023-06-04T04:00:22.160Z,2.17
2023-06-04T04:02:53.791Z,1.90
2023-06-04T04:05:27.354Z,2.10
2023-06-04T04:07:57.276Z,2.13
2023-06-04T04:10:30.662Z,2.90
2023-06-04T04:13:00.366Z,1.90
2023-06-04T04:15:56.143Z,2.28
2023-06-04T04:18:24.679Z,1.90
2023-06-04T04:20:53.883Z,2.10
2023-06-04T04:23:21.957Z,2.03
2023-06-04T04:25:51.002Z,2.15
2023-06-04T04:28:20.297Z,2.00
2023-06-04T04:30:50.002Z,2.17
2023-06-04T04:33:18.160Z,2.28
2023-06-04T04:35:50.040Z,2.28
2023-06-04T04:38:25.297Z,2.50
2023-06-04T04:41:02.291Z,2.10
2023-06-04T04:43:31.788Z,2.20
2023-06-04T04:46:01.450Z,2.00
2023-06-04T04:48:31.725Z,2.13
2023-06-04T04:51:00.318Z,2.10
2023-06-04T04:53:29.061Z,2.28
2023-06-04T04:55:57.275Z,2.15
2023-06-04T04:58:26.362Z,2.30
2023-06-04T05:00:55.958Z,2.00
2023-06-04T05:03:23.884Z,2.35
2023-06-04T05:05:51.673Z,2.35
2023-06-04T05:08:20.614Z,2.40
2023-06-04T05:10:48.501Z,2.45
2023-06-04T05:13:16.383Z,2.60
2023-06-04T05:15:59.294Z,2.40
2023-06-04T05:18:30.634Z,2.15
2023-06-04T05:21:03.676Z,2.13
2023-06-04T05:23:35.297Z,2.55
2023-06-04T05:26:06.287Z,2.38
2023-06-04T05:28:34.944Z,2.47
2023-06-04T05:31:05.609Z,2.30
2023-06-04T05:39:43.448Z,2.13
2023-06-04T05:42:16.132Z,2.10
2023-06-04T05:44:44.801Z,2.10
2023-06-04T05:47:19.244Z,2.00
2023-06-04T05:49:47.863Z,1.75
2023-06-04T05:52:15.977Z,2.13
2023-06-04T05:54:45.907Z,2.00
2023-06-04T05:57:14.684Z,2.15
2023-06-04T05:59:42.477Z,1.90
2023-06-04T06:02:16.331Z,2.47
2023-06-04T06:04:49.279Z,2.00
2023-06-04T06:07:17.284Z,2.10
2023-06-04T06:09:45.778Z,1.80
2023-06-04T06:12:13.691Z,1.95
2023-06-04T06:14:43.622Z,2.10
2023-06-04T06:17:11.307Z,1.88
2023-06-04T06:19:39.388Z,2.00
2023-06-04T06:22:09.273Z,1.83
2023-06-04T06:27:08.336Z,1.90
2023-06-04T06:29:36.852Z,2.53
2023-06-04T06:32:05.836Z,1.80
2023-06-04T06:34:34.276Z,2.05
2023-06-04T06:37:03.656Z,1.80
2023-06-04T06:39:33.273Z,1.70
2023-06-04T06:42:01.042Z,1.88
2023-06-04T06:44:34.736Z,1.92
2023-06-04T06:47:03.475Z,1.58
2023-06-04T06:49:31.186Z,1.77
2023-06-04T06:51:59.440Z,1.50
2023-06-04T06:54:27.284Z,1.70
2023-06-04T06:56:57.299Z,1.70
2023-06-04T06:59:24.900Z,1.60
2023-06-04T07:01:53.565Z,1.70
2023-06-04T07:04:21.583Z,1.60
2023-06-04T07:06:49.221Z,1.92
2023-06-04T07:09:18.259Z,1.80
2023-06-04T07:11:47.834Z,1.63
2023-06-04T07:14:17.271Z,1.40
2023-06-04T07:16:45.429Z,1.40
2023-06-04T07:19:13.670Z,1.70
2023-06-04T07:21:41.370Z,1.50
2023-06-04T07:24:09.879Z,1.50
2023-06-04T07:26:38.404Z,1.90
2023-06-04T07:29:06.373Z,2.00
2023-06-04T07:31:36.217Z,1.67
2023-06-04T07:34:04.061Z,1.73
2023-06-04T07:36:32.000Z,1.40
2023-06-04T07:39:00.278Z,1.48
2023-06-04T07:41:27.971Z,1.60
2023-06-04T07:43:57.296Z,1.60
2023-06-04T07:46:25.012Z,1.60
2023-06-04T07:48:54.003Z,1.80
2023-06-04T07:51:21.827Z,1.80
2023-06-04T07:53:49.523Z,1.70
2023-06-04T07:56:19.287Z,1.30
2023-06-04T07:58:47.807Z,1.42
2023-06-04T08:01:16.646Z,1.58
2023-06-04T08:03:44.532Z,1.65
2023-06-04T08:06:16.311Z,1.52
2023-06-04T08:08:46.439Z,1.50
2023-06-04T08:11:16.399Z,1.38
2023-06-04T08:13:44.315Z,1.50
2023-06-04T08:16:12.569Z,1.33
2023-06-04T08:18:41.153Z,1.58
2023-06-04T08:21:11.749Z,1.27
2023-06-04T08:23:40.800Z,1.40
2023-06-04T08:26:09.283Z,1.80
2023-06-04T08:28:39.533Z,1.60
2023-06-04T08:31:07.688Z,1.70
2023-06-04T08:33:35.473Z,1.38
2023-06-04T08:36:03.225Z,1.40
2023-06-04T08:38:33.322Z,1.60
2023-06-04T08:41:11.517Z,1.57
2023-06-04T08:43:43.301Z,1.63
2023-06-04T08:48:39.863Z,1.50
2023-06-04T08:51:10.296Z,1.50
2023-06-04T08:53:38.520Z,1.50
2023-06-04T08:56:08.108Z,1.60
2023-06-04T08:58:38.279Z,1.50
2023-06-04T09:01:08.520Z,1.70
2023-06-04T09:03:39.827Z,1.50
2023-06-04T09:11:37.388Z,1.65
2023-06-04T09:14:09.941Z,1.52
2023-06-04T09:16:44.904Z,1.20
2023-06-04T09:19:12.523Z,1.40
2023-06-04T09:21:50.850Z,1.40
2023-06-04T09:24:19.364Z,1.20
2023-06-04T09:26:50.310Z,1.40
2023-06-04T09:29:19.314Z,1.35
2023-06-04T09:31:48.470Z,1.40
2023-06-04T09:34:16.664Z,1.40
2023-06-04T09:36:44.360Z,1.52
2023-06-04T09:39:18.528Z,1.38
2023-06-04T09:41:47.306Z,1.30
2023-06-04T09:44:16.438Z,1.35
2023-06-04T09:46:55.687Z,1.50
2023-06-04T09:49:24.423Z,1.52
2023-06-04T09:51:56.762Z,1.40
2023-06-04T09:54:24.361Z,1.30
2023-06-04T09:56:52.058Z,1.33
2023-06-04T09:59:22.046Z,1.40
2023-06-04T10:01:54.443Z,1.38
2023-06-04T10:04:23.787Z,1.48
2023-06-04T10:06:55.312Z,1.35
2023-06-04T10:09:25.382Z,1.30
2023-06-04T10:11:58.799Z,1.33
2023-06-04T10:14:43.319Z,1.40
2023-06-04T10:17:15.743Z,1.13
2023-06-04T10:19:45.832Z,1.20
2023-06-04T10:22:20.991Z,1.40
2023-06-04T10:27:18.748Z,1.42
2023-06-04T10:29:48.134Z,1.30
2023-06-04T10:32:17.141Z,1.40
2023-06-04T10:34:45.170Z,1.50
2023-06-04T10:37:21.360Z,1.50
2023-06-04T10:39:54.028Z,1.33
2023-06-04T10:42:23.454Z,1.27
2023-06-04T10:44:57.566Z,1.27
2023-06-04T10:47:31.546Z,1.58
2023-06-04T10:50:11.559Z,1.90
2023-06-04T10:52:41.003Z,2.13
2023-06-04T10:55:10.324Z,2.00
2023-06-04T10:57:38.370Z,1.67
2023-06-04T11:00:11.393Z,1.60
2023-06-04T11:02:52.480Z,2.03
2023-06-04T11:05:46.089Z,1.85
2023-06-04T11:08:15.216Z,1.73
2023-06-04T11:10:47.303Z,2.30
2023-06-04T11:13:17.405Z,1.70
2023-06-04T11:15:49.685Z,1.50
2023-06-04T11:18:19.111Z,1.60
2023-06-04T11:20:48.252Z,1.50
2023-06-04T11:23:17.375Z,1.50
2023-06-04T11:25:46.461Z,1.45
2023-06-04T11:28:19.045Z,1.50
2023-06-04T11:30:58.263Z,1.40
2023-06-04T11:33:27.344Z,2.50
2023-06-04T11:35:54.946Z,1.60
2023-06-04T11:38:22.832Z,1.40
2023-06-04T11:40:57.700Z,1.30
2023-06-04T11:43:26.847Z,1.42
2023-06-04T11:45:56.051Z,1.33
2023-06-04T11:48:24.095Z,1.48
2023-06-04T11:50:51.967Z,1.40
2023-06-04T11:53:20.135Z,1.50
2023-06-04T11:55:48.993Z,1.40
2023-06-04T11:58:41.307Z,1.30
2023-06-04T12:01:11.119Z,1.50
2023-06-04T12:03:39.911Z,1.77
2023-06-04T12:06:16.649Z,1.45
2023-06-04T12:08:49.242Z,1.40
2023-06-04T12:11:28.873Z,1.40
2023-06-04T12:13:58.337Z,1.50
2023-06-04T12:16:29.378Z,1.50
2023-06-04T12:19:10.795Z,1.30
2023-06-04T12:21:39.752Z,1.60
2023-06-04T12:24:12.087Z,1.30
2023-06-04T12:26:41.725Z,1.35
2023-06-04T12:29:13.448Z,1.40
2023-06-04T12:34:11.130Z,1.50
2023-06-04T12:36:42.336Z,1.30
2023-06-04T12:39:10.131Z,1.48
2023-06-04T12:41:37.787Z,1.45
2023-06-04T12:44:05.699Z,1.40
2023-06-04T12:46:34.058Z,1.50
2023-06-04T12:49:03.078Z,1.67
2023-06-04T12:51:31.327Z,1.52
2023-06-04T12:53:59.398Z,1.30
2023-06-04T12:56:53.060Z,1.42
2023-06-04T12:59:21.417Z,1.50
2023-06-04T13:01:49.172Z,1.42
2023-06-04T13:04:19.512Z,1.42
2023-06-04T13:06:47.971Z,1.40
2023-06-04T13:09:15.883Z,1.30
2023-06-04T13:11:44.908Z,1.85
2023-06-04T13:14:13.209Z,1.40
2023-06-04T13:16:42.485Z,1.58
2023-06-04T13:19:38.068Z,1.60
2023-06-04T13:22:05.920Z,1.50
2023-06-04T13:24:33.595Z,1.40
2023-06-04T13:27:02.350Z,1.50
2023-06-04T13:29:34.593Z,1.50
2023-06-04T13:32:03.455Z,1.42
2023-06-04T13:34:33.379Z,1.30
2023-06-04T13:37:28.343Z,1.50
2023-06-04T13:39:55.917Z,1.40
2023-06-04T13:42:23.566Z,1.30
2023-06-04T13:44:51.432Z,1.27
2023-06-04T13:47:19.808Z,1.50
2023-06-04T13:49:47.465Z,1.60
2023-06-04T13:52:15.431Z,1.90
2023-06-04T13:54:45.592Z,1.70
2023-06-04T13:57:13.939Z,1.90
2023-06-04T13:59:42.677Z,1.90
2023-06-04T14:02:10.553Z,1.52
2023-06-04T14:04:38.359Z,2.28
2023-06-04T14:07:07.582Z,1.58
2023-06-04T14:09:36.205Z,1.63
2023-06-04T14:12:06.522Z,1.33
2023-06-04T14:14:37.983Z,1.40
2023-06-04T14:17:07.368Z,1.40
2023-06-04T14:19:35.457Z,1.50
2023-06-04T14:22:03.921Z,1.27
2023-06-04T14:24:33.372Z,1.67
2023-06-04T14:27:02.003Z,1.40
2023-06-04T14:29:31.087Z,1.30
2023-06-04T14:31:59.663Z,1.30
2023-06-04T14:34:27.519Z,1.35
2023-06-04T14:36:58.565Z,1.35
2023-06-04T14:39:26.359Z,1.70
2023-06-04T14:41:54.226Z,1.52
2023-06-04T14:44:22.389Z,1.75
2023-06-04T14:46:53.144Z,1.65
2023-06-04T14:49:21.871Z,1.70
2023-06-04T14:51:49.667Z,1.40
2023-06-04T14:54:17.875Z,1.40
2023-06-04T14:56:46.409Z,1.52
2023-06-04T14:59:14.000Z,1.35
2023-06-04T15:01:42.613Z,1.60
2023-06-04T15:04:12.514Z,1.60
2023-06-04T15:06:40.622Z,1.50
2023-06-04T15:09:11.777Z,1.42
2023-06-04T15:11:41.420Z,1.42
2023-06-04T15:14:09.059Z,1.60
2023-06-04T15:16:36.705Z,1.50
2023-06-04T15:19:04.507Z,1.80
2023-06-04T15:21:36.072Z,1.45
2023-06-04T15:26:32.506Z,1.42
2023-06-04T15:29:00.738Z,1.50
2023-06-04T15:31:28.357Z,1.30
2023-06-04T15:39:16.944Z,1.30
2023-06-04T15:41:44.749Z,1.50
2023-06-04T15:44:12.507Z,1.48
2023-06-04T15:46:40.168Z,1.50
2023-06-04T15:49:09.022Z,1.40
2023-06-04T15:51:37.400Z,1.40
2023-06-04T15:54:06.480Z,1.48
2023-06-04T15:56:37.560Z,1.30
2023-06-04T15:59:06.366Z,1.50
2023-06-04T16:01:34.066Z,1.65
2023-06-04T16:04:02.332Z,1.55
2023-06-04T16:06:32.814Z,1.63
2023-06-04T16:09:01.485Z,1.30
2023-06-04T16:11:30.586Z,1.63
2023-06-04T16:13:58.436Z,1.40
2023-06-04T16:16:26.160Z,1.73
2023-06-04T16:18:53.885Z,1.70
2023-06-04T16:21:23.395Z,1.40
2023-06-04T16:23:51.027Z,1.38
2023-06-04T16:26:19.377Z,1.60
2023-06-04T16:28:48.509Z,1.40
2023-06-04T16:31:20.457Z,1.40
2023-06-04T16:33:48.112Z,1.40
2023-06-04T16:36:16.874Z,1.52
2023-06-04T16:38:44.469Z,1.60
2023-06-04T16:41:17.773Z,1.45
2023-06-04T16:43:45.878Z,1.55
2023-06-04T16:46:15.168Z,1.40
2023-06-04T16:48:42.875Z,1.45
2023-06-04T16:51:10.603Z,1.48
2023-06-04T16:53:38.252Z,1.58
2023-06-04T16:56:06.017Z,1.60
2023-06-04T16:58:36.390Z,1.65
2023-06-04T17:01:04.101Z,1.30
2023-06-04T17:03:34.167Z,1.65
2023-06-04T17:06:02.479Z,1.52
2023-06-04T17:08:30.926Z,1.60
2023-06-04T17:11:01.974Z,1.48
2023-06-04T17:13:29.689Z,1.50
2023-06-04T17:15:57.272Z,1.60
2023-06-04T17:18:24.910Z,1.50
2023-06-04T17:20:54.020Z,1.50
2023-06-04T17:26:15.547Z,1.83
2023-06-04T17:28:44.414Z,1.80
2023-06-04T17:31:13.781Z,1.90
2023-06-04T17:33:41.884Z,1.50
2023-06-04T17:36:10.914Z,1.60
2023-06-04T17:38:42.385Z,1.52
2023-06-04T17:41:10.850Z,1.63
2023-06-04T17:43:40.127Z,1.70
2023-06-04T17:46:08.242Z,1.55
2023-06-04T17:48:37.406Z,1.52
2023-06-04T17:51:05.901Z,1.70
2023-06-04T17:53:34.997Z,1.55
2023-06-04T17:56:03.005Z,1.70
2023-06-04T17:58:31.570Z,1.38
2023-06-04T18:00:59.938Z,1.70
2023-06-04T18:03:29.734Z,1.70
2023-06-04T18:05:57.356Z,1.60
2023-06-04T18:08:25.326Z,1.70
2023-06-04T18:10:54.721Z,1.90
2023-06-04T18:13:23.542Z,1.50
2023-06-04T18:15:51.187Z,1.80
2023-06-04T18:18:19.076Z,1.70
2023-06-04T18:20:46.973Z,1.60
2023-06-04T18:23:15.534Z,1.50
2023-06-04T18:25:43.179Z,1.60
2023-06-04T18:28:12.161Z,1.73
2023-06-04T18:30:41.568Z,1.50
2023-06-04T18:33:09.293Z,1.52
2023-06-04T18:35:37.382Z,1.65
2023-06-04T18:38:07.669Z,1.80
2023-06-04T18:40:35.367Z,1.65
2023-06-04T18:43:04.438Z,1.60
2023-06-04T18:45:33.582Z,1.70
2023-06-04T18:48:01.503Z,1.90
2023-06-04T18:50:29.348Z,1.60
2023-06-04T18:52:59.414Z,1.85
2023-06-04T18:55:27.031Z,2.13
2023-06-04T18:57:54.835Z,2.30
2023-06-04T19:00:22.809Z,2.42
2023-06-04T19:02:51.956Z,2.60
2023-06-04T19:05:19.995Z,2.22
2023-06-04T19:07:47.996Z,1.95
2023-06-04T19:10:16.069Z,2.20
2023-06-04T19:12:43.871Z,1.60
2023-06-04T19:15:12.123Z,1.60
2023-06-04T19:17:39.843Z,1.60
2023-06-04T19:20:09.991Z,1.67
2023-06-04T19:22:37.660Z,1.70
2023-06-04T19:25:05.694Z,1.80
2023-06-04T19:27:33.354Z,1.40
2023-06-04T19:30:00.950Z,1.70
2023-06-04T19:32:30.514Z,1.70
2023-06-04T19:34:58.989Z,1.80
2023-06-04T19:37:27.972Z,1.60
2023-06-04T19:39:55.590Z,1.60
2023-06-04T19:42:24.273Z,1.60
2023-06-04T19:44:51.977Z,1.60
2023-06-04T19:47:19.667Z,1.58
2023-06-04T19:49:47.887Z,1.63
2023-06-04T19:52:15.498Z,1.85
2023-06-04T19:54:44.507Z,2.00
2023-06-04T19:57:12.143Z,1.90
2023-06-04T19:59:40.864Z,1.83
2023-06-04T20:02:09.486Z,1.73
2023-06-04T20:04:38.345Z,1.80
2023-06-04T20:07:08.519Z,1.70
2023-06-04T20:09:36.654Z,1.75
2023-06-04T20:12:08.552Z,1.77
2023-06-04T20:14:36.212Z,1.63
2023-06-04T20:17:03.997Z,1.95
2023-06-04T20:19:31.708Z,1.80
2023-06-04T20:21:59.292Z,2.00
2023-06-04T20:24:27.890Z,2.05
2023-06-04T20:26:55.899Z,1.88
2023-06-04T20:29:24.940Z,2.17
2023-06-04T20:31:52.636Z,2.28
2023-06-04T20:34:22.644Z,2.00
2023-06-04T20:36:53.430Z,1.90
2023-06-04T20:39:21.326Z,1.80
2023-06-04T20:41:49.172Z,1.90
2023-06-04T20:44:18.881Z,2.13
2023-06-04T20:46:48.878Z,2.05
2023-06-04T20:49:16.556Z,1.90
2023-06-04T20:51:44.575Z,1.80
2023-06-04T20:54:12.581Z,1.92
2023-06-04T20:56:40.342Z,2.10
2023-06-04T20:59:08.005Z,2.05
2023-06-04T21:01:35.735Z,1.98
2023-06-04T21:04:05.226Z,1.88
2023-06-04T21:06:33.155Z,2.42
2023-06-04T21:09:00.802Z,2.03
2023-06-04T21:11:28.620Z,2.13
2023-06-04T21:13:59.421Z,2.00
2023-06-04T21:16:27.116Z,2.13
2023-06-04T21:18:54.840Z,2.20
2023-06-04T21:21:23.835Z,2.10
2023-06-04T21:23:51.520Z,2.10
2023-06-04T21:26:21.228Z,2.10
2023-06-04T21:28:49.069Z,2.05
2023-06-04T21:31:16.714Z,2.03
2023-06-04T21:33:44.909Z,2.25
2023-06-04T21:36:15.441Z,2.53
2023-06-04T21:38:44.513Z,2.33
2023-06-04T21:41:12.149Z,2.17
2023-06-04T21:43:39.747Z,2.20
2023-06-04T21:46:07.920Z,2.25
2023-06-04T21:48:35.579Z,2.30
2023-06-04T21:51:03.204Z,1.92
2023-06-04T21:53:34.485Z,2.00
2023-06-04T21:56:04.514Z,1.90
2023-06-04T21:58:32.135Z,2.10
2023-06-04T22:00:59.754Z,2.25
2023-06-04T22:03:27.765Z,2.10
2023-06-04T22:05:55.741Z,1.95
2023-06-04T22:08:23.411Z,1.90
2023-06-04T22:10:51.275Z,2.30
2023-06-04T22:13:20.366Z,2.13
2023-06-04T22:15:48.009Z,2.38
2023-06-04T22:18:15.775Z,2.17
2023-06-04T22:20:43.452Z,2.05
2023-06-04T22:23:11.054Z,2.10
2023-06-04T22:25:38.611Z,2.45
2023-06-04T22:28:06.255Z,2.30
2023-06-04T22:30:35.331Z,2.20
2023-06-04T22:33:04.599Z,2.00
2023-06-04T22:35:32.370Z,2.20
2023-06-04T22:38:00.505Z,2.10
2023-06-04T22:40:29.179Z,1.98
2023-06-04T22:42:57.167Z,2.55
2023-06-04T22:45:24.954Z,2.10
2023-06-04T22:47:53.966Z,2.30
2023-06-04T22:50:22.102Z,2.47
2023-06-04T22:52:49.849Z,2.50
2023-06-04T22:55:18.309Z,2.05
2023-06-04T22:57:46.228Z,2.50
2023-06-04T23:00:14.729Z,2.22
2023-06-04T23:02:42.756Z,2.38
2023-06-04T23:05:12.121Z,1.90
2023-06-04T23:07:40.885Z,2.28
2023-06-04T23:10:11.423Z,2.40
2023-06-04T23:12:43.849Z,2.30
2023-06-04T23:15:21.425Z,2.42
2023-06-04T23:17:50.928Z,2.53
2023-06-04T23:20:20.481Z,2.60
2023-06-04T23:22:48.056Z,2.50
2023-06-04T23:25:19.758Z,2.60
2023-06-04T23:27:47.437Z,2.40
2023-06-04T23:30:18.431Z,2.50
2023-06-04T23:32:46.292Z,2.63
2023-06-04T23:35:17.941Z,2.45
2023-06-04T23:37:46.969Z,2.45
2023-06-04T23:40:15.097Z,2.15
2023-06-04T23:42:42.769Z,2.67
2023-06-04T23:45:12.945Z,3.40
2023-06-04T23:47:40.974Z,2.80
2023-06-04T23:50:09.208Z,2.83
2023-06-04T23:52:36.948Z,2.70
2023-06-04T23:55:06.429Z,2.60
2023-06-04T23:57:34.112Z,2.63
